sensor_id;sensor_type;location;lat;lon;timestamp;P1;durP1;ratioP1;P2;durP2;ratioP2
14619;SDS011;32125;48.518;9.050;2022-08-11T00:01:35;2.20;;;2.00;;
14619;SDS011;32125;48.518;9.050;2022-08-11T00:04:02;3.50;;;2.30;;
14619;SDS011;32125;48.518;9.050;2022-08-11T00:06:36;2.20;;;2.10;;
14619;SDS011;32125;48.518;9.050;2022-08-11T00:09:04;2.23;;;2.03;;
14619;SDS011;32125;48.518;9.050;2022-08-11T00:11:37;2.97;;;2.20;;
14619;SDS011;32125;48.518;9.050;2022-08-11T00:14:27;3.57;;;2.20;;
14619;SDS011;32125;48.518;9.050;2022-08-11T00:19:28;2.50;;;2.30;;
14619;SDS011;32125;48.518;9.050;2022-08-11T00:21:57;2.33;;;2.13;;
14619;SDS011;32125;48.518;9.050;2022-08-11T00:24:25;3.47;;;2.33;;
14619;SDS011;32125;48.518;9.050;2022-08-11T00:27:03;3.80;;;2.37;;
14619;SDS011;32125;48.518;9.050;2022-08-11T00:29:32;2.40;;;2.20;;
14619;SDS011;32125;48.518;9.050;2022-08-11T00:31:59;2.57;;;2.07;;
14619;SDS011;32125;48.518;9.050;2022-08-11T00:34:33;2.63;;;2.30;;
14619;SDS011;32125;48.518;9.050;2022-08-11T00:37:15;2.37;;;2.17;;
14619;SDS011;32125;48.518;9.050;2022-08-11T00:39:48;2.80;;;2.50;;
14619;SDS011;32125;48.518;9.050;2022-08-11T00:50:59;4.77;;;2.53;;
14619;SDS011;32125;48.518;9.050;2022-08-11T00:54:14;2.67;;;2.47;;
14619;SDS011;32125;48.518;9.050;2022-08-11T00:59:53;2.83;;;2.63;;
14619;SDS011;32125;48.518;9.050;2022-08-11T01:13:35;3.63;;;2.60;;
14619;SDS011;32125;48.518;9.050;2022-08-11T01:45:08;3.17;;;2.40;;
14619;SDS011;32125;48.518;9.050;2022-08-11T01:48:02;6.47;;;2.70;;
14619;SDS011;32125;48.518;9.050;2022-08-11T01:53:07;4.63;;;2.80;;
14619;SDS011;32125;48.518;9.050;2022-08-11T01:58:44;3.17;;;2.87;;
14619;SDS011;32125;48.518;9.050;2022-08-11T02:06:25;4.37;;;2.70;;
14619;SDS011;32125;48.518;9.050;2022-08-11T02:09:25;3.37;;;2.60;;
14619;SDS011;32125;48.518;9.050;2022-08-11T02:12:26;3.93;;;2.80;;
14619;SDS011;32125;48.518;9.050;2022-08-11T02:18:07;3.37;;;2.50;;
14619;SDS011;32125;48.518;9.050;2022-08-11T02:21:15;2.60;;;2.40;;
14619;SDS011;32125;48.518;9.050;2022-08-11T02:24:13;2.70;;;2.50;;
14619;SDS011;32125;48.518;9.050;2022-08-11T02:32:31;5.07;;;2.83;;
14619;SDS011;32125;48.518;9.050;2022-08-11T02:43:33;6.00;;;2.80;;
14619;SDS011;32125;48.518;9.050;2022-08-11T02:54:50;3.00;;;2.70;;
14619;SDS011;32125;48.518;9.050;2022-08-11T02:57:27;3.90;;;2.70;;
14619;SDS011;32125;48.518;9.050;2022-08-11T03:08:14;3.13;;;2.63;;
14619;SDS011;32125;48.518;9.050;2022-08-11T03:25:31;3.00;;;2.80;;
14619;SDS011;32125;48.518;9.050;2022-08-11T03:33:45;3.70;;;2.73;;
14619;SDS011;32125;48.518;9.050;2022-08-11T03:45:04;3.13;;;2.83;;
14619;SDS011;32125;48.518;9.050;2022-08-11T03:51:21;3.37;;;3.00;;
14619;SDS011;32125;48.518;9.050;2022-08-11T03:54:03;3.60;;;3.30;;
14619;SDS011;32125;48.518;9.050;2022-08-11T03:59:50;3.27;;;2.97;;
14619;SDS011;32125;48.518;9.050;2022-08-11T04:19:29;4.07;;;2.93;;
14619;SDS011;32125;48.518;9.050;2022-08-11T04:24:57;3.30;;;3.00;;
14619;SDS011;32125;48.518;9.050;2022-08-11T04:33:29;3.50;;;3.27;;
14619;SDS011;32125;48.518;9.050;2022-08-11T04:39:27;4.13;;;3.30;;
14619;SDS011;32125;48.518;9.050;2022-08-11T04:45:25;5.33;;;3.60;;
14619;SDS011;32125;48.518;9.050;2022-08-11T04:55:25;5.63;;;3.30;;
14619;SDS011;32125;48.518;9.050;2022-08-11T04:58:20;5.53;;;3.30;;
14619;SDS011;32125;48.518;9.050;2022-08-11T05:07:19;5.33;;;3.37;;
14619;SDS011;32125;48.518;9.050;2022-08-11T05:13:11;6.93;;;3.90;;
14619;SDS011;32125;48.518;9.050;2022-08-11T05:16:08;7.80;;;3.70;;
14619;SDS011;32125;48.518;9.050;2022-08-11T05:18:54;5.97;;;3.50;;
14619;SDS011;32125;48.518;9.050;2022-08-11T05:21:42;5.03;;;3.27;;
14619;SDS011;32125;48.518;9.050;2022-08-11T05:24:40;3.87;;;3.43;;
14619;SDS011;32125;48.518;9.050;2022-08-11T05:27:52;4.30;;;3.67;;
14619;SDS011;32125;48.518;9.050;2022-08-11T05:30:56;4.20;;;3.80;;
14619;SDS011;32125;48.518;9.050;2022-08-11T05:33:56;4.13;;;3.50;;
14619;SDS011;32125;48.518;9.050;2022-08-11T05:36:51;4.60;;;3.40;;
14619;SDS011;32125;48.518;9.050;2022-08-11T05:39:20;3.93;;;3.63;;
14619;SDS011;32125;48.518;9.050;2022-08-11T05:42:06;5.20;;;3.67;;
14619;SDS011;32125;48.518;9.050;2022-08-11T05:44:52;5.17;;;3.40;;
14619;SDS011;32125;48.518;9.050;2022-08-11T05:47:40;6.43;;;3.70;;
14619;SDS011;32125;48.518;9.050;2022-08-11T05:50:25;5.40;;;3.80;;
14619;SDS011;32125;48.518;9.050;2022-08-11T05:53:11;3.77;;;3.47;;
14619;SDS011;32125;48.518;9.050;2022-08-11T05:55:57;5.90;;;3.90;;
14619;SDS011;32125;48.518;9.050;2022-08-11T05:58:40;6.73;;;3.97;;
14619;SDS011;32125;48.518;9.050;2022-08-11T06:01:20;6.47;;;3.87;;
14619;SDS011;32125;48.518;9.050;2022-08-11T06:03:48;5.93;;;3.90;;
14619;SDS011;32125;48.518;9.050;2022-08-11T06:06:38;4.63;;;3.70;;
14619;SDS011;32125;48.518;9.050;2022-08-11T06:09:06;4.63;;;3.70;;
14619;SDS011;32125;48.518;9.050;2022-08-11T06:11:36;5.83;;;3.70;;
14619;SDS011;32125;48.518;9.050;2022-08-11T06:14:07;7.27;;;3.83;;
14619;SDS011;32125;48.518;9.050;2022-08-11T06:16:34;8.23;;;3.90;;
14619;SDS011;32125;48.518;9.050;2022-08-11T06:19:02;8.53;;;3.90;;
14619;SDS011;32125;48.518;9.050;2022-08-11T06:21:32;11.33;;;3.77;;
14619;SDS011;32125;48.518;9.050;2022-08-11T06:24:00;7.93;;;3.80;;
14619;SDS011;32125;48.518;9.050;2022-08-11T06:26:28;6.80;;;3.80;;
14619;SDS011;32125;48.518;9.050;2022-08-11T06:28:55;9.30;;;3.70;;
14619;SDS011;32125;48.518;9.050;2022-08-11T06:31:22;4.83;;;3.73;;
14619;SDS011;32125;48.518;9.050;2022-08-11T06:39:32;4.90;;;3.60;;
14619;SDS011;32125;48.518;9.050;2022-08-11T06:42:13;6.13;;;3.27;;
14619;SDS011;32125;48.518;9.050;2022-08-11T06:45:00;4.77;;;3.23;;
14619;SDS011;32125;48.518;9.050;2022-08-11T06:47:29;3.70;;;2.70;;
14619;SDS011;32125;48.518;9.050;2022-08-11T06:49:55;4.80;;;3.00;;
14619;SDS011;32125;48.518;9.050;2022-08-11T06:52:43;4.90;;;2.90;;
14619;SDS011;32125;48.518;9.050;2022-08-11T06:55:20;5.90;;;2.90;;
14619;SDS011;32125;48.518;9.050;2022-08-11T06:58:05;5.03;;;3.00;;
14619;SDS011;32125;48.518;9.050;2022-08-11T07:00:51;5.30;;;3.00;;
14619;SDS011;32125;48.518;9.050;2022-08-11T07:03:22;4.03;;;2.70;;
14619;SDS011;32125;48.518;9.050;2022-08-11T07:05:55;8.02;;;3.03;;
14619;SDS011;32125;48.518;9.050;2022-08-11T07:14:57;7.35;;;2.50;;
14619;SDS011;32125;48.518;9.050;2022-08-11T07:17:51;7.03;;;2.80;;
14619;SDS011;32125;48.518;9.050;2022-08-11T07:20:38;5.25;;;2.53;;
14619;SDS011;32125;48.518;9.050;2022-08-11T07:23:23;4.47;;;2.47;;
14619;SDS011;32125;48.518;9.050;2022-08-11T07:26:09;4.20;;;2.20;;
14619;SDS011;32125;48.518;9.050;2022-08-11T07:28:54;4.07;;;2.45;;
14619;SDS011;32125;48.518;9.050;2022-08-11T07:31:28;2.75;;;2.10;;
14619;SDS011;32125;48.518;9.050;2022-08-11T07:34:31;4.47;;;2.35;;
14619;SDS011;32125;48.518;9.050;2022-08-11T07:37:01;4.43;;;2.17;;
14619;SDS011;32125;48.518;9.050;2022-08-11T07:39:32;4.82;;;2.38;;
14619;SDS011;32125;48.518;9.050;2022-08-11T07:42:05;3.17;;;2.47;;
14619;SDS011;32125;48.518;9.050;2022-08-11T07:44:34;4.03;;;2.25;;
14619;SDS011;32125;48.518;9.050;2022-08-11T07:47:23;4.05;;;2.38;;
14619;SDS011;32125;48.518;9.050;2022-08-11T07:50:15;3.47;;;2.30;;
14619;SDS011;32125;48.518;9.050;2022-08-11T07:53:00;4.72;;;2.20;;
14619;SDS011;32125;48.518;9.050;2022-08-11T07:55:28;4.20;;;2.25;;
14619;SDS011;32125;48.518;9.050;2022-08-11T07:57:57;2.38;;;2.20;;
14619;SDS011;32125;48.518;9.050;2022-08-11T08:00:43;3.05;;;2.20;;
14619;SDS011;32125;48.518;9.050;2022-08-11T08:03:28;3.35;;;2.30;;
14619;SDS011;32125;48.518;9.050;2022-08-11T08:06:14;2.50;;;2.28;;
14619;SDS011;32125;48.518;9.050;2022-08-11T08:08:59;7.20;;;2.30;;
14619;SDS011;32125;48.518;9.050;2022-08-11T08:11:44;2.60;;;2.28;;
14619;SDS011;32125;48.518;9.050;2022-08-11T08:14:29;2.22;;;2.03;;
14619;SDS011;32125;48.518;9.050;2022-08-11T08:17:14;4.72;;;2.10;;
14619;SDS011;32125;48.518;9.050;2022-08-11T08:20:01;2.65;;;2.20;;
14619;SDS011;32125;48.518;9.050;2022-08-11T08:22:27;4.15;;;2.40;;
14619;SDS011;32125;48.518;9.050;2022-08-11T08:24:54;2.40;;;2.20;;
14619;SDS011;32125;48.518;9.050;2022-08-11T08:27:20;2.58;;;2.38;;
14619;SDS011;32125;48.518;9.050;2022-08-11T08:29:50;2.45;;;2.20;;
14619;SDS011;32125;48.518;9.050;2022-08-11T08:32:36;3.28;;;2.30;;
14619;SDS011;32125;48.518;9.050;2022-08-11T08:35:06;3.55;;;2.20;;
14619;SDS011;32125;48.518;9.050;2022-08-11T08:37:37;2.25;;;2.05;;
14619;SDS011;32125;48.518;9.050;2022-08-11T08:40:06;3.58;;;2.15;;
14619;SDS011;32125;48.518;9.050;2022-08-11T08:42:43;3.40;;;2.15;;
14619;SDS011;32125;48.518;9.050;2022-08-11T08:45:15;3.20;;;2.10;;
14619;SDS011;32125;48.518;9.050;2022-08-11T08:47:44;4.00;;;2.20;;
14619;SDS011;32125;48.518;9.050;2022-08-11T08:50:13;2.47;;;2.10;;
14619;SDS011;32125;48.518;9.050;2022-08-11T08:52:53;4.60;;;2.30;;
14619;SDS011;32125;48.518;9.050;2022-08-11T08:55:20;2.60;;;2.40;;
14619;SDS011;32125;48.518;9.050;2022-08-11T08:57:52;4.93;;;2.13;;
14619;SDS011;32125;48.518;9.050;2022-08-11T09:00:20;4.32;;;2.38;;
14619;SDS011;32125;48.518;9.050;2022-08-11T09:02:46;4.40;;;2.20;;
14619;SDS011;32125;48.518;9.050;2022-08-11T09:05:14;4.35;;;2.03;;
14619;SDS011;32125;48.518;9.050;2022-08-11T09:07:46;2.58;;;2.10;;
14619;SDS011;32125;48.518;9.050;2022-08-11T09:10:19;2.22;;;2.03;;
14619;SDS011;32125;48.518;9.050;2022-08-11T09:12:45;2.10;;;1.92;;
14619;SDS011;32125;48.518;9.050;2022-08-11T09:15:12;2.10;;;2.00;;
14619;SDS011;32125;48.518;9.050;2022-08-11T09:20:15;5.60;;;2.08;;
14619;SDS011;32125;48.518;9.050;2022-08-11T09:22:48;4.80;;;2.22;;
14619;SDS011;32125;48.518;9.050;2022-08-11T09:25:34;3.33;;;2.10;;
14619;SDS011;32125;48.518;9.050;2022-08-11T09:28:19;5.47;;;2.25;;
14619;SDS011;32125;48.518;9.050;2022-08-11T09:30:50;2.75;;;2.00;;
14619;SDS011;32125;48.518;9.050;2022-08-11T09:33:24;3.80;;;1.92;;
14619;SDS011;32125;48.518;9.050;2022-08-11T09:35:52;3.15;;;1.98;;
14619;SDS011;32125;48.518;9.050;2022-08-11T09:38:22;3.17;;;1.95;;
14619;SDS011;32125;48.518;9.050;2022-08-11T09:41:09;4.45;;;2.00;;
14619;SDS011;32125;48.518;9.050;2022-08-11T09:43:41;4.22;;;1.73;;
14619;SDS011;32125;48.518;9.050;2022-08-11T09:46:27;3.97;;;2.03;;
14619;SDS011;32125;48.518;9.050;2022-08-11T09:48:54;3.97;;;1.83;;
14619;SDS011;32125;48.518;9.050;2022-08-11T09:51:23;3.22;;;1.88;;
14619;SDS011;32125;48.518;9.050;2022-08-11T09:53:49;2.80;;;1.80;;
14619;SDS011;32125;48.518;9.050;2022-08-11T09:56:17;4.05;;;1.65;;
14619;SDS011;32125;48.518;9.050;2022-08-11T09:59:07;2.00;;;1.90;;
14619;SDS011;32125;48.518;9.050;2022-08-11T10:01:42;2.47;;;1.70;;
14619;SDS011;32125;48.518;9.050;2022-08-11T10:04:16;3.85;;;1.90;;
14619;SDS011;32125;48.518;9.050;2022-08-11T10:06:51;1.80;;;1.70;;
14619;SDS011;32125;48.518;9.050;2022-08-11T10:09:28;1.80;;;1.60;;
14619;SDS011;32125;48.518;9.050;2022-08-11T10:12:09;2.10;;;1.70;;
14619;SDS011;32125;48.518;9.050;2022-08-11T10:14:45;3.63;;;1.70;;
14619;SDS011;32125;48.518;9.050;2022-08-11T10:17:33;3.15;;;1.90;;
14619;SDS011;32125;48.518;9.050;2022-08-11T10:20:00;1.88;;;1.77;;
14619;SDS011;32125;48.518;9.050;2022-08-11T10:22:28;3.22;;;1.80;;
14619;SDS011;32125;48.518;9.050;2022-08-11T10:25:13;1.83;;;1.60;;
14619;SDS011;32125;48.518;9.050;2022-08-11T10:27:58;2.55;;;1.70;;
14619;SDS011;32125;48.518;9.050;2022-08-11T10:30:26;2.95;;;1.90;;
14619;SDS011;32125;48.518;9.050;2022-08-11T10:33:11;2.70;;;1.77;;
14619;SDS011;32125;48.518;9.050;2022-08-11T10:35:57;1.75;;;1.45;;
14619;SDS011;32125;48.518;9.050;2022-08-11T10:38:23;1.80;;;1.42;;
14619;SDS011;32125;48.518;9.050;2022-08-11T10:40:50;2.15;;;1.50;;
14619;SDS011;32125;48.518;9.050;2022-08-11T10:43:36;2.60;;;1.52;;
14619;SDS011;32125;48.518;9.050;2022-08-11T10:46:06;3.83;;;1.65;;
14619;SDS011;32125;48.518;9.050;2022-08-11T10:48:55;3.00;;;1.63;;
14619;SDS011;32125;48.518;9.050;2022-08-11T10:51:26;2.03;;;1.80;;
14619;SDS011;32125;48.518;9.050;2022-08-11T10:54:11;2.35;;;1.58;;
14619;SDS011;32125;48.518;9.050;2022-08-11T10:56:58;1.60;;;1.50;;
14619;SDS011;32125;48.518;9.050;2022-08-11T10:59:43;1.73;;;1.63;;
14619;SDS011;32125;48.518;9.050;2022-08-11T11:02:12;1.88;;;1.70;;
14619;SDS011;32125;48.518;9.050;2022-08-11T11:07:20;3.45;;;1.70;;
14619;SDS011;32125;48.518;9.050;2022-08-11T11:09:57;4.35;;;1.67;;
14619;SDS011;32125;48.518;9.050;2022-08-11T11:15:22;2.58;;;1.40;;
14619;SDS011;32125;48.518;9.050;2022-08-11T11:20:42;2.00;;;1.55;;
14619;SDS011;32125;48.518;9.050;2022-08-11T11:26:01;1.77;;;1.50;;
14619;SDS011;32125;48.518;9.050;2022-08-11T11:37:31;3.97;;;1.40;;
14619;SDS011;32125;48.518;9.050;2022-08-11T11:40:04;1.83;;;1.45;;
14619;SDS011;32125;48.518;9.050;2022-08-11T11:42:34;3.03;;;1.52;;
14619;SDS011;32125;48.518;9.050;2022-08-11T11:45:03;3.38;;;1.65;;
14619;SDS011;32125;48.518;9.050;2022-08-11T11:47:30;2.65;;;1.63;;
14619;SDS011;32125;48.518;9.050;2022-08-11T11:49:59;2.25;;;1.58;;
14619;SDS011;32125;48.518;9.050;2022-08-11T11:52:30;4.38;;;1.52;;
14619;SDS011;32125;48.518;9.050;2022-08-11T11:54:57;1.88;;;1.40;;
14619;SDS011;32125;48.518;9.050;2022-08-11T11:57:24;1.98;;;1.58;;
14619;SDS011;32125;48.518;9.050;2022-08-11T12:00:11;2.65;;;1.50;;
14619;SDS011;32125;48.518;9.050;2022-08-11T12:02:57;2.10;;;1.58;;
14619;SDS011;32125;48.518;9.050;2022-08-11T12:05:25;1.60;;;1.50;;
14619;SDS011;32125;48.518;9.050;2022-08-11T12:07:52;2.67;;;1.50;;
14619;SDS011;32125;48.518;9.050;2022-08-11T12:10:42;1.63;;;1.48;;
14619;SDS011;32125;48.518;9.050;2022-08-11T12:13:15;2.60;;;1.40;;
14619;SDS011;32125;48.518;9.050;2022-08-11T12:16:00;3.33;;;1.60;;
14619;SDS011;32125;48.518;9.050;2022-08-11T12:18:33;2.15;;;1.52;;
14619;SDS011;32125;48.518;9.050;2022-08-11T12:20:59;3.00;;;1.60;;
14619;SDS011;32125;48.518;9.050;2022-08-11T12:23:26;4.55;;;1.75;;
14619;SDS011;32125;48.518;9.050;2022-08-11T12:26:14;3.63;;;1.50;;
14619;SDS011;32125;48.518;9.050;2022-08-11T12:28:59;1.77;;;1.50;;
14619;SDS011;32125;48.518;9.050;2022-08-11T12:31:32;1.95;;;1.60;;
14619;SDS011;32125;48.518;9.050;2022-08-11T12:34:13;2.53;;;1.50;;
14619;SDS011;32125;48.518;9.050;2022-08-11T12:37:02;1.77;;;1.30;;
14619;SDS011;32125;48.518;9.050;2022-08-11T12:39:41;4.10;;;1.50;;
14619;SDS011;32125;48.518;9.050;2022-08-11T12:42:30;1.70;;;1.40;;
14619;SDS011;32125;48.518;9.050;2022-08-11T12:45:21;1.65;;;1.52;;
14619;SDS011;32125;48.518;9.050;2022-08-11T12:47:51;2.75;;;1.45;;
14619;SDS011;32125;48.518;9.050;2022-08-11T12:51:00;2.38;;;1.75;;
14619;SDS011;32125;48.518;9.050;2022-08-11T12:54:01;3.00;;;1.50;;
14619;SDS011;32125;48.518;9.050;2022-08-11T12:56:54;4.43;;;1.45;;
14619;SDS011;32125;48.518;9.050;2022-08-11T12:59:34;3.03;;;1.67;;
14619;SDS011;32125;48.518;9.050;2022-08-11T13:02:21;3.40;;;1.40;;
14619;SDS011;32125;48.518;9.050;2022-08-11T13:05:07;3.90;;;1.42;;
14619;SDS011;32125;48.518;9.050;2022-08-11T13:07:33;2.25;;;1.40;;
14619;SDS011;32125;48.518;9.050;2022-08-11T13:10:05;2.35;;;1.65;;
14619;SDS011;32125;48.518;9.050;2022-08-11T13:12:32;1.90;;;1.60;;
14619;SDS011;32125;48.518;9.050;2022-08-11T13:15:15;1.70;;;1.60;;
14619;SDS011;32125;48.518;9.050;2022-08-11T13:17:43;2.20;;;1.70;;
14619;SDS011;32125;48.518;9.050;2022-08-11T13:20:19;1.83;;;1.48;;
14619;SDS011;32125;48.518;9.050;2022-08-11T13:22:48;2.17;;;1.30;;
14619;SDS011;32125;48.518;9.050;2022-08-11T13:25:19;1.30;;;1.20;;
14619;SDS011;32125;48.518;9.050;2022-08-11T13:27:48;1.85;;;1.60;;
14619;SDS011;32125;48.518;9.050;2022-08-11T13:30:18;1.52;;;1.40;;
14619;SDS011;32125;48.518;9.050;2022-08-11T13:33:03;3.40;;;1.70;;
14619;SDS011;32125;48.518;9.050;2022-08-11T13:35:31;2.28;;;1.50;;
14619;SDS011;32125;48.518;9.050;2022-08-11T13:38:00;4.05;;;1.50;;
14619;SDS011;32125;48.518;9.050;2022-08-11T13:40:26;1.75;;;1.63;;
14619;SDS011;32125;48.518;9.050;2022-08-11T13:42:53;3.30;;;1.67;;
14619;SDS011;32125;48.518;9.050;2022-08-11T13:45:23;3.78;;;1.55;;
14619;SDS011;32125;48.518;9.050;2022-08-11T13:47:56;2.00;;;1.50;;
14619;SDS011;32125;48.518;9.050;2022-08-11T13:50:24;1.70;;;1.60;;
14619;SDS011;32125;48.518;9.050;2022-08-11T13:53:11;1.73;;;1.63;;
14619;SDS011;32125;48.518;9.050;2022-08-11T13:55:39;2.42;;;1.40;;
14619;SDS011;32125;48.518;9.050;2022-08-11T13:58:06;1.70;;;1.35;;
14619;SDS011;32125;48.518;9.050;2022-08-11T14:00:38;2.15;;;1.40;;
14619;SDS011;32125;48.518;9.050;2022-08-11T14:03:09;2.60;;;1.50;;
14619;SDS011;32125;48.518;9.050;2022-08-11T14:05:39;1.95;;;1.50;;
14619;SDS011;32125;48.518;9.050;2022-08-11T14:08:17;2.78;;;1.48;;
14619;SDS011;32125;48.518;9.050;2022-08-11T14:10:47;1.70;;;1.60;;
14619;SDS011;32125;48.518;9.050;2022-08-11T14:13:37;3.33;;;1.50;;
14619;SDS011;32125;48.518;9.050;2022-08-11T14:16:06;1.60;;;1.50;;
14619;SDS011;32125;48.518;9.050;2022-08-11T14:18:35;2.15;;;1.60;;
14619;SDS011;32125;48.518;9.050;2022-08-11T14:21:04;2.95;;;1.50;;
14619;SDS011;32125;48.518;9.050;2022-08-11T14:23:49;2.55;;;1.50;;
14619;SDS011;32125;48.518;9.050;2022-08-11T14:26:23;1.70;;;1.40;;
14619;SDS011;32125;48.518;9.050;2022-08-11T14:31:39;1.50;;;1.38;;
14619;SDS011;32125;48.518;9.050;2022-08-11T14:34:13;2.00;;;1.58;;
14619;SDS011;32125;48.518;9.050;2022-08-11T14:36:43;1.75;;;1.40;;
14619;SDS011;32125;48.518;9.050;2022-08-11T14:39:11;2.90;;;1.60;;
14619;SDS011;32125;48.518;9.050;2022-08-11T14:41:45;2.58;;;1.60;;
14619;SDS011;32125;48.518;9.050;2022-08-11T14:44:33;1.60;;;1.50;;
14619;SDS011;32125;48.518;9.050;2022-08-11T14:47:19;3.75;;;1.70;;
14619;SDS011;32125;48.518;9.050;2022-08-11T14:49:49;3.28;;;1.90;;
14619;SDS011;32125;48.518;9.050;2022-08-11T14:52:17;1.67;;;1.58;;
14619;SDS011;32125;48.518;9.050;2022-08-11T14:54:45;1.60;;;1.50;;
14619;SDS011;32125;48.518;9.050;2022-08-11T14:57:32;2.75;;;1.80;;
14619;SDS011;32125;48.518;9.050;2022-08-11T15:00:05;2.67;;;1.60;;
14619;SDS011;32125;48.518;9.050;2022-08-11T15:02:37;3.00;;;1.50;;
14619;SDS011;32125;48.518;9.050;2022-08-11T15:05:24;2.95;;;1.50;;
14619;SDS011;32125;48.518;9.050;2022-08-11T15:07:51;2.08;;;1.50;;
14619;SDS011;32125;48.518;9.050;2022-08-11T15:10:18;1.98;;;1.85;;
14619;SDS011;32125;48.518;9.050;2022-08-11T15:12:44;2.22;;;1.80;;
14619;SDS011;32125;48.518;9.050;2022-08-11T15:15:12;3.88;;;1.70;;
14619;SDS011;32125;48.518;9.050;2022-08-11T15:17:57;2.10;;;1.65;;
14619;SDS011;32125;48.518;9.050;2022-08-11T15:20:27;3.20;;;1.70;;
14619;SDS011;32125;48.518;9.050;2022-08-11T15:23:12;2.83;;;1.90;;
14619;SDS011;32125;48.518;9.050;2022-08-11T15:26:18;3.25;;;1.67;;
14619;SDS011;32125;48.518;9.050;2022-08-11T15:29:13;3.15;;;1.88;;
14619;SDS011;32125;48.518;9.050;2022-08-11T15:32:02;3.75;;;1.80;;
14619;SDS011;32125;48.518;9.050;2022-08-11T15:34:46;2.42;;;1.60;;
14619;SDS011;32125;48.518;9.050;2022-08-11T15:37:44;2.33;;;1.55;;
14619;SDS011;32125;48.518;9.050;2022-08-11T15:40:18;3.08;;;1.70;;
14619;SDS011;32125;48.518;9.050;2022-08-11T15:43:18;3.72;;;1.50;;
14619;SDS011;32125;48.518;9.050;2022-08-11T15:46:13;3.15;;;1.77;;
14619;SDS011;32125;48.518;9.050;2022-08-11T15:51:34;2.35;;;1.77;;
14619;SDS011;32125;48.518;9.050;2022-08-11T15:54:00;2.28;;;1.70;;
14619;SDS011;32125;48.518;9.050;2022-08-11T15:56:32;2.00;;;1.63;;
14619;SDS011;32125;48.518;9.050;2022-08-11T15:59:01;4.85;;;1.90;;
14619;SDS011;32125;48.518;9.050;2022-08-11T16:01:49;2.42;;;1.70;;
14619;SDS011;32125;48.518;9.050;2022-08-11T16:04:54;2.20;;;1.60;;
14619;SDS011;32125;48.518;9.050;2022-08-11T16:07:25;1.75;;;1.60;;
14619;SDS011;32125;48.518;9.050;2022-08-11T16:10:07;2.80;;;1.75;;
14619;SDS011;32125;48.518;9.050;2022-08-11T16:12:55;1.73;;;1.63;;
14619;SDS011;32125;48.518;9.050;2022-08-11T16:15:27;2.95;;;1.92;;
14619;SDS011;32125;48.518;9.050;2022-08-11T16:18:13;2.97;;;1.60;;
14619;SDS011;32125;48.518;9.050;2022-08-11T16:20:41;2.63;;;1.60;;
14619;SDS011;32125;48.518;9.050;2022-08-11T16:23:08;1.92;;;1.70;;
14619;SDS011;32125;48.518;9.050;2022-08-11T16:25:35;3.78;;;1.60;;
14619;SDS011;32125;48.518;9.050;2022-08-11T16:28:02;4.13;;;1.60;;
14619;SDS011;32125;48.518;9.050;2022-08-11T16:30:33;2.00;;;1.45;;
14619;SDS011;32125;48.518;9.050;2022-08-11T16:33:00;2.70;;;1.55;;
14619;SDS011;32125;48.518;9.050;2022-08-11T16:35:29;1.70;;;1.60;;
14619;SDS011;32125;48.518;9.050;2022-08-11T16:38:18;1.67;;;1.58;;
14619;SDS011;32125;48.518;9.050;2022-08-11T16:40:59;1.60;;;1.40;;
14619;SDS011;32125;48.518;9.050;2022-08-11T16:43:28;3.22;;;1.50;;
14619;SDS011;32125;48.518;9.050;2022-08-11T16:46:18;2.38;;;1.40;;
14619;SDS011;32125;48.518;9.050;2022-08-11T16:49:05;2.13;;;1.90;;
14619;SDS011;32125;48.518;9.050;2022-08-11T16:51:34;2.50;;;1.75;;
14619;SDS011;32125;48.518;9.050;2022-08-11T16:54:02;1.92;;;1.75;;
14619;SDS011;32125;48.518;9.050;2022-08-11T16:56:38;2.58;;;1.50;;
14619;SDS011;32125;48.518;9.050;2022-08-11T16:59:06;2.70;;;1.67;;
14619;SDS011;32125;48.518;9.050;2022-08-11T17:01:40;1.70;;;1.60;;
14619;SDS011;32125;48.518;9.050;2022-08-11T17:07:18;2.20;;;1.50;;
14619;SDS011;32125;48.518;9.050;2022-08-11T17:10:05;1.70;;;1.60;;
14619;SDS011;32125;48.518;9.050;2022-08-11T17:13:07;2.60;;;1.58;;
14619;SDS011;32125;48.518;9.050;2022-08-11T17:15:34;1.60;;;1.50;;
14619;SDS011;32125;48.518;9.050;2022-08-11T17:18:21;2.50;;;1.83;;
14619;SDS011;32125;48.518;9.050;2022-08-11T17:23:45;2.10;;;1.90;;
14619;SDS011;32125;48.518;9.050;2022-08-11T17:32:03;2.08;;;1.70;;
14619;SDS011;32125;48.518;9.050;2022-08-11T17:34:55;2.78;;;1.73;;
14619;SDS011;32125;48.518;9.050;2022-08-11T17:37:46;2.10;;;1.90;;
14619;SDS011;32125;48.518;9.050;2022-08-11T17:40:16;5.03;;;1.92;;
14619;SDS011;32125;48.518;9.050;2022-08-11T17:42:52;3.08;;;1.70;;
14619;SDS011;32125;48.518;9.050;2022-08-11T17:45:38;1.67;;;1.58;;
14619;SDS011;32125;48.518;9.050;2022-08-11T17:48:28;2.63;;;1.70;;
14619;SDS011;32125;48.518;9.050;2022-08-11T17:50:58;2.50;;;1.67;;
14619;SDS011;32125;48.518;9.050;2022-08-11T17:53:28;1.63;;;1.52;;
14619;SDS011;32125;48.518;9.050;2022-08-11T17:56:13;1.55;;;1.45;;
14619;SDS011;32125;48.518;9.050;2022-08-11T17:58:58;2.05;;;1.70;;
14619;SDS011;32125;48.518;9.050;2022-08-11T18:01:49;2.22;;;1.52;;
14619;SDS011;32125;48.518;9.050;2022-08-11T18:04:18;1.80;;;1.70;;
14619;SDS011;32125;48.518;9.050;2022-08-11T18:06:47;1.85;;;1.60;;
14619;SDS011;32125;48.518;9.050;2022-08-11T18:09:18;2.20;;;2.00;;
14619;SDS011;32125;48.518;9.050;2022-08-11T18:12:06;2.78;;;1.65;;
14619;SDS011;32125;48.518;9.050;2022-08-11T18:14:52;3.47;;;1.70;;
14619;SDS011;32125;48.518;9.050;2022-08-11T18:17:37;2.70;;;1.77;;
14619;SDS011;32125;48.518;9.050;2022-08-11T18:20:23;2.83;;;1.73;;
14619;SDS011;32125;48.518;9.050;2022-08-11T18:23:16;3.08;;;1.70;;
14619;SDS011;32125;48.518;9.050;2022-08-11T18:26:02;2.35;;;1.50;;
14619;SDS011;32125;48.518;9.050;2022-08-11T18:28:49;1.80;;;1.70;;
14619;SDS011;32125;48.518;9.050;2022-08-11T18:31:41;2.53;;;1.70;;
14619;SDS011;32125;48.518;9.050;2022-08-11T18:34:35;2.00;;;1.80;;
14619;SDS011;32125;48.518;9.050;2022-08-11T18:37:25;1.70;;;1.60;;
14619;SDS011;32125;48.518;9.050;2022-08-11T18:40:16;2.90;;;1.73;;
14619;SDS011;32125;48.518;9.050;2022-08-11T18:43:06;2.13;;;1.92;;
14619;SDS011;32125;48.518;9.050;2022-08-11T18:45:52;3.03;;;2.00;;
14619;SDS011;32125;48.518;9.050;2022-08-11T18:48:42;2.08;;;1.70;;
14619;SDS011;32125;48.518;9.050;2022-08-11T18:51:32;2.25;;;1.90;;
14619;SDS011;32125;48.518;9.050;2022-08-11T18:54:20;2.10;;;1.90;;
14619;SDS011;32125;48.518;9.050;2022-08-11T18:57:09;1.92;;;1.70;;
14619;SDS011;32125;48.518;9.050;2022-08-11T18:59:56;4.07;;;1.90;;
14619;SDS011;32125;48.518;9.050;2022-08-11T19:02:44;2.28;;;1.73;;
14619;SDS011;32125;48.518;9.050;2022-08-11T19:05:30;2.00;;;1.90;;
14619;SDS011;32125;48.518;9.050;2022-08-11T19:08:17;2.17;;;1.98;;
14619;SDS011;32125;48.518;9.050;2022-08-11T19:11:05;2.97;;;2.13;;
14619;SDS011;32125;48.518;9.050;2022-08-11T19:13:51;2.20;;;1.63;;
14619;SDS011;32125;48.518;9.050;2022-08-11T19:16:35;2.05;;;1.67;;
14619;SDS011;32125;48.518;9.050;2022-08-11T19:19:23;2.08;;;1.88;;
14619;SDS011;32125;48.518;9.050;2022-08-11T19:22:10;4.85;;;2.38;;
14619;SDS011;32125;48.518;9.050;2022-08-11T19:24:54;2.85;;;2.13;;
14619;SDS011;32125;48.518;9.050;2022-08-11T19:27:39;4.75;;;2.00;;
14619;SDS011;32125;48.518;9.050;2022-08-11T19:30:25;2.10;;;2.00;;
14619;SDS011;32125;48.518;9.050;2022-08-11T19:33:10;4.22;;;2.25;;
14619;SDS011;32125;48.518;9.050;2022-08-11T19:35:56;2.38;;;2.17;;
14619;SDS011;32125;48.518;9.050;2022-08-11T19:38:44;3.97;;;2.35;;
14619;SDS011;32125;48.518;9.050;2022-08-11T19:41:29;3.78;;;2.30;;
14619;SDS011;32125;48.518;9.050;2022-08-11T19:44:13;2.78;;;2.38;;
14619;SDS011;32125;48.518;9.050;2022-08-11T19:46:59;4.10;;;2.78;;
14619;SDS011;32125;48.518;9.050;2022-08-11T19:49:44;2.47;;;2.13;;
14619;SDS011;32125;48.518;9.050;2022-08-11T19:52:30;3.40;;;2.10;;